Time;durP1;ratioP1;P1;durP2;ratioP2;P2;SDS_P1;SDS_P2;PMS_P1;PMS_P2;Temp;Humidity;BMP_temperature;BMP_pressure;BME280_temperature;BME280_humidity;BME280_pressure;Samples;Min_cycle;Max_cycle;Signal;HPM_P1;HPM_P2
2021/09/20 00:01:00;;;;;;;6.03;5.07;;;14.60;1.00;;;;;;5020978;28;20161;-76
2021/09/20 00:03:37;;;;;;;8.73;5.70;;;14.60;1.00;;;;;;5029327;28;20851;-76
2021/09/20 00:06:03;;;;;;;12.40;5.00;;;14.60;1.00;;;;;;5030823;28;20759;-76
2021/09/20 00:08:36;;;;;;;10.00;5.40;;;14.70;1.00;;;;;;5038765;28;20415;-76
2021/09/20 00:11:06;;;;;;;6.23;5.23;;;14.60;1.00;;;;;;5024055;28;20411;-76
2021/09/20 00:13:48;;;;;;;9.87;5.03;;;14.60;1.00;;;;;;5020276;28;20489;-76
2021/09/20 00:16:18;;;;;;;8.73;5.40;;;14.70;1.00;;;;;;5020214;28;20411;-76
2021/09/20 00:18:44;;;;;;;7.60;5.33;;;14.60;1.00;;;;;;5027524;28;20444;-76
2021/09/20 00:21:18;;;;;;;7.00;5.03;;;14.60;1.00;;;;;;5040235;28;20366;-76
2021/09/20 00:23:43;;;;;;;7.40;5.50;;;14.50;1.00;;;;;;5040153;28;20832;-76
2021/09/20 00:26:18;;;;;;;6.20;5.40;;;14.50;1.00;;;;;;5040230;28;20432;-76
2021/09/20 00:28:44;;;;;;;6.70;5.23;;;14.50;1.00;;;;;;5040046;28;20155;-76
2021/09/20 00:31:12;;;;;;;5.00;4.50;;;14.50;1.00;;;;;;5031330;28;20497;-77
2021/09/20 00:34:05;;;;;;;7.87;5.27;;;14.60;1.00;;;;;;5040043;28;20164;-77
2021/09/20 00:37:05;;;;;;;9.23;5.00;;;14.50;1.00;;;;;;5039755;28;20431;-76
2021/09/20 00:39:31;;;;;;;9.23;5.13;;;14.50;1.00;;;;;;5037021;28;20449;-76
2021/09/20 00:41:57;;;;;;;6.10;5.30;;;14.50;1.00;;;;;;5023823;28;20414;-76
2021/09/20 00:44:36;;;;;;;6.37;4.70;;;14.50;1.00;;;;;;5016700;28;20157;-76
2021/09/20 00:47:02;;;;;;;9.33;6.00;;;14.50;1.00;;;;;;5019548;28;20165;-75
2021/09/20 00:49:42;;;;;;;9.90;5.87;;;14.50;1.00;;;;;;5032465;28;20795;-76
2021/09/20 00:52:09;;;;;;;6.67;4.80;;;14.50;1.00;;;;;;5036611;28;20425;-76
2021/09/20 00:54:35;;;;;;;7.53;5.60;;;14.50;1.00;;;;;;5036770;28;20880;-76
2021/09/20 00:57:06;;;;;;;6.80;5.53;;;14.50;1.00;;;;;;5034926;28;20422;-75
2021/09/20 00:59:36;;;;;;;8.30;4.97;;;14.50;1.00;;;;;;5036493;28;20206;-76
2021/09/20 01:02:12;;;;;;;8.10;5.60;;;14.50;1.00;;;;;;5029414;28;20390;-76
2021/09/20 01:04:48;;;;;;;8.03;5.57;;;14.50;1.00;;;;;;5032765;28;20421;-76
2021/09/20 01:07:24;;;;;;;7.13;4.90;;;14.40;1.00;;;;;;5016703;28;20403;-76
2021/09/20 01:10:00;;;;;;;8.87;5.27;;;14.50;1.00;;;;;;5034409;28;20432;-76
2021/09/20 01:12:27;;;;;;;8.03;5.70;;;14.50;1.00;;;;;;5024055;28;20382;-76
2021/09/20 01:14:56;;;;;;;7.33;5.40;;;14.40;1.00;;;;;;5019148;28;21156;-76
2021/09/20 01:17:36;;;;;;;9.77;6.13;;;14.40;1.00;;;;;;5036178;28;20424;-76
2021/09/20 01:20:03;;;;;;;6.87;5.20;;;14.40;1.00;;;;;;5017057;28;20514;-76
2021/09/20 01:22:30;;;;;;;10.40;5.70;;;14.40;1.00;;;;;;5016367;28;20396;-76
2021/09/20 01:25:08;;;;;;;7.67;6.13;;;14.50;1.00;;;;;;5022697;28;20878;-76
2021/09/20 01:27:42;;;;;;;13.93;5.87;;;14.40;1.00;;;;;;5035782;28;20461;-76
2021/09/20 01:30:08;;;;;;;9.33;5.17;;;14.40;1.00;;;;;;5035856;28;20477;-76
2021/09/20 01:32:34;;;;;;;8.63;6.27;;;14.40;1.00;;;;;;5035729;28;20374;-76
2021/09/20 01:35:00;;;;;;;13.13;5.80;;;14.30;1.00;;;;;;5035617;28;20404;-76
2021/09/20 01:37:26;;;;;;;6.40;5.40;;;;;;;;;;5035635;28;20184;-76
2021/09/20 01:40:00;;;;;;;12.13;4.70;;;14.40;1.00;;;;;;5035966;28;20160;-76
2021/09/20 01:42:25;;;;;;;8.60;5.10;;;14.40;1.00;;;;;;5018756;28;20737;-76
2021/09/20 01:44:51;;;;;;;8.40;5.50;;;14.40;1.00;;;;;;5022046;28;20407;-77
2021/09/20 01:47:17;;;;;;;7.03;5.53;;;14.30;1.00;;;;;;5035591;28;20631;-76
2021/09/20 01:49:43;;;;;;;6.40;5.20;;;14.30;1.00;;;;;;5020294;28;20193;-76
2021/09/20 01:52:09;;;;;;;6.53;5.37;;;14.30;1.00;;;;;;5016111;28;20406;-76
2021/09/20 01:54:36;;;;;;;7.80;5.50;;;14.30;1.00;;;;;;5034220;28;20181;-76
2021/09/20 01:57:24;;;;;;;9.40;5.90;;;14.30;1.00;;;;;;5035782;28;20443;-76
2021/09/20 02:00:13;;;;;;;10.97;5.37;;;14.20;1.00;;;;;;5021433;28;20494;-76
2021/09/20 02:02:42;;;;;;;9.63;6.30;;;14.20;1.00;;;;;;5020268;28;20385;-76
2021/09/20 02:05:30;;;;;;;7.00;5.27;;;14.20;1.00;;;;;;5032809;28;20393;-76
2021/09/20 02:08:06;;;;;;;8.00;5.50;;;14.20;1.00;;;;;;5014129;28;20415;-77
2021/09/20 02:10:36;;;;;;;8.17;5.47;;;14.20;1.00;;;;;;5027099;28;20439;-76
2021/09/20 02:13:06;;;;;;;8.93;5.70;;;14.20;1.00;;;;;;5034922;28;20424;-76
2021/09/20 02:15:31;;;;;;;9.50;6.20;;;14.20;1.00;;;;;;5034690;28;20766;-76
2021/09/20 02:18:06;;;;;;;12.43;6.17;;;14.20;1.00;;;;;;5034786;28;20489;-76
2021/09/20 02:20:36;;;;;;;8.37;5.30;;;14.20;1.00;;;;;;5032917;28;20155;-76
2021/09/20 02:23:02;;;;;;;7.90;5.30;;;14.20;1.00;;;;;;5015171;28;20413;-76
2021/09/20 02:25:53;;;;;;;9.03;5.90;;;14.20;1.00;;;;;;5015522;28;20379;-76
2021/09/20 02:29:05;;;;;;;13.57;6.00;;;14.20;1.00;;;;;;5015045;28;20161;-76
2021/09/20 02:31:42;;;;;;;7.93;5.53;;;14.20;1.00;;;;;;5025441;28;20389;-76
2021/09/20 02:34:12;;;;;;;9.60;6.07;;;14.20;1.00;;;;;;5032662;28;20894;-76
2021/09/20 02:36:48;;;;;;;7.50;5.53;;;14.20;1.00;;;;;;5014606;28;20422;-76
2021/09/20 02:39:14;;;;;;;8.30;5.67;;;14.20;1.00;;;;;;5016576;28;20366;-76
2021/09/20 02:41:42;;;;;;;5.77;5.07;;;14.20;1.00;;;;;;5034970;28;20395;-76
2021/09/20 02:44:13;;;;;;;7.33;5.80;;;14.30;1.00;;;;;;5034543;28;20184;-76
2021/09/20 02:46:42;;;;;;;7.87;5.60;;;14.20;1.00;;;;;;5034681;28;20399;-76
2021/09/20 02:49:08;;;;;;;8.10;5.10;;;14.20;1.00;;;;;;5034286;28;20415;-76
2021/09/20 02:51:34;;;;;;;8.40;5.27;;;14.20;1.00;;;;;;5034645;28;20596;-76
2021/09/20 02:54:06;;;;;;;8.80;5.47;;;14.20;1.00;;;;;;5034451;28;20461;-76
2021/09/20 02:56:36;;;;;;;7.63;5.53;;;14.20;1.00;;;;;;5034567;28;20184;-76
2021/09/20 02:59:06;;;;;;;9.17;5.60;;;14.20;1.00;;;;;;5020254;28;20442;-76
2021/09/20 03:01:31;;;;;;;7.50;5.60;;;14.20;1.00;;;;;;5016656;28;20858;-76
2021/09/20 03:04:06;;;;;;;10.73;5.77;;;14.20;1.00;;;;;;5031968;28;20450;-75
2021/09/20 03:06:36;;;;;;;7.23;5.60;;;14.20;1.00;;;;;;5033578;28;20186;-76
2021/09/20 03:09:06;;;;;;;10.80;5.77;;;14.20;1.00;;;;;;5033919;28;20410;-76
2021/09/20 03:11:36;;;;;;;8.13;5.23;;;14.20;1.00;;;;;;5015647;28;20930;-76
2021/09/20 03:14:06;;;;;;;8.90;6.33;;;14.20;1.00;;;;;;5018070;28;20911;-75
2021/09/20 03:16:36;;;;;;;8.87;6.10;;;14.10;1.00;;;;;;5034034;28;20448;-76
2021/09/20 03:19:06;;;;;;;8.37;5.50;;;14.20;1.00;;;;;;5033889;28;20366;-77
2021/09/20 03:21:36;;;;;;;8.60;5.70;;;14.10;1.00;;;;;;5034087;28;20362;-76
2021/09/20 03:24:02;;;;;;;6.70;5.33;;;14.20;1.00;;;;;;5034064;28;20415;-76
2021/09/20 03:26:28;;;;;;;12.03;6.23;;;14.20;1.00;;;;;;5014614;28;20427;-76
2021/09/20 03:28:54;;;;;;;11.17;6.30;;;14.20;1.00;;;;;;5014130;28;20367;-76
2021/09/20 03:31:30;;;;;;;9.47;6.77;;;14.10;1.00;;;;;;5014003;28;20918;-76
2021/09/20 03:34:06;;;;;;;11.33;6.23;;;14.10;1.00;;;;;;5013792;28;20381;-76
2021/09/20 03:36:36;;;;;;;8.90;5.53;;;14.10;1.00;;;;;;5013832;28;20450;-76
2021/09/20 03:39:42;;;;;;;8.43;6.27;;;14.10;1.00;;;;;;5015827;28;20403;-76
2021/09/20 03:42:30;;;;;;;13.83;6.13;;;14.00;1.00;;;;;;5034237;28;20394;-76
2021/09/20 03:45:24;;;;;;;8.73;5.80;;;14.00;1.00;;;;;;5029391;28;20386;-76
2021/09/20 03:47:49;;;;;;;11.17;6.40;;;14.00;1.00;;;;;;5014106;28;20396;-76
2021/09/20 03:50:15;;;;;;;10.60;5.70;;;14.00;1.00;;;;;;5014142;28;20405;-76
2021/09/20 03:52:42;;;;;;;8.37;6.10;;;14.00;1.00;;;;;;5014263;28;20177;-76
2021/09/20 03:55:09;;;;;;;8.17;5.90;;;14.00;1.00;;;;;;5014218;28;20423;-75
2021/09/20 03:57:35;;;;;;;13.60;6.30;;;14.00;1.00;;;;;;5034042;28;20421;-76
2021/09/20 04:00:01;;;;;;;12.47;6.70;;;14.00;1.00;;;;;;5033642;28;20870;-76
2021/09/20 04:02:30;;;;;;;12.17;6.90;;;14.00;1.00;;;;;;5028373;28;20188;-76
2021/09/20 04:05:00;;;;;;;9.37;6.10;;;14.00;1.00;;;;;;5029881;28;20748;-76
2021/09/20 04:07:30;;;;;;;15.47;6.93;;;14.10;1.00;;;;;;5033601;28;20544;-76
2021/09/20 04:09:55;;;;;;;11.10;6.77;;;14.00;1.00;;;;;;5028833;28;20911;-77
2021/09/20 04:12:36;;;;;;;13.50;6.57;;;14.00;1.00;;;;;;5034249;28;20453;-76
2021/09/20 04:15:02;;;;;;;11.50;6.40;;;14.00;1.00;;;;;;5020233;28;20165;-76
2021/09/20 04:18:11;;;;;;;12.20;6.77;;;14.00;1.00;;;;;;5013832;28;20418;-76
2021/09/20 04:20:37;;;;;;;12.87;6.83;;;14.00;1.00;;;;;;5017568;28;20363;-75
2021/09/20 04:23:12;;;;;;;13.03;7.13;;;14.00;1.00;;;;;;5018097;28;20381;-75
2021/09/20 04:25:42;;;;;;;13.10;7.20;;;14.00;1.00;;;;;;5020647;28;20619;-75
2021/09/20 04:28:19;;;;;;;10.13;7.03;;;13.90;1.00;;;;;;5037535;28;20456;-76
2021/09/20 04:31:05;;;;;;;22.70;7.57;;;13.90;1.00;;;;;;5036833;28;20871;-76
2021/09/20 04:33:31;;;;;;;10.67;7.37;;;13.90;1.00;;;;;;5036750;28;20444;-76
2021/09/20 04:36:00;;;;;;;13.37;7.70;;;13.90;1.00;;;;;;5032014;28;20424;-77
2021/09/20 04:38:30;;;;;;;10.50;7.47;;;13.90;1.00;;;;;;5024460;28;20192;-76
2021/09/20 04:40:55;;;;;;;12.60;7.40;;;13.90;1.00;;;;;;5036858;28;20871;-76
2021/09/20 04:43:47;;;;;;;13.30;7.30;;;13.90;1.00;;;;;;5037340;28;20373;-76
2021/09/20 04:46:13;;;;;;;13.37;8.43;;;13.90;1.00;;;;;;5036775;28;20169;-77
2021/09/20 04:49:00;;;;;;;11.73;7.83;;;13.80;1.00;;;;;;5036854;28;20377;-76
2021/09/20 04:51:28;;;;;;;15.20;8.13;;;13.80;1.00;;;;;;5028212;28;20169;-76
2021/09/20 04:54:24;;;;;;;11.30;7.80;;;13.80;1.00;;;;;;5016803;28;20401;-76
2021/09/20 04:56:54;;;;;;;14.70;8.00;;;13.80;1.00;;;;;;5023013;28;20475;-75
2021/09/20 04:59:36;;;;;;;11.67;7.73;;;13.80;1.00;;;;;;5025147;28;20436;-75
2021/09/20 05:02:06;;;;;;;12.40;7.63;;;13.80;1.00;;;;;;5024503;28;20452;-75
2021/09/20 05:04:32;;;;;;;15.27;7.60;;;13.80;1.00;;;;;;5019986;28;20417;-74
2021/09/20 05:07:00;;;;;;;11.93;7.43;;;13.80;1.00;;;;;;5016414;28;20434;-75
2021/09/20 05:09:36;;;;;;;11.20;7.67;;;13.80;1.00;;;;;;5028146;28;20473;-74
2021/09/20 05:12:06;;;;;;;12.70;7.43;;;13.80;1.00;;;;;;5036580;28;20373;-76
2021/09/20 05:14:48;;;;;;;14.00;7.53;;;13.80;1.00;;;;;;5024941;28;20409;-76
2021/09/20 05:17:42;;;;;;;11.90;7.37;;;13.80;1.00;;;;;;5023739;28;20429;-76
2021/09/20 05:20:30;;;;;;;17.57;8.10;;;13.80;1.00;;;;;;5016385;28;20427;-77
2021/09/20 05:22:55;;;;;;;13.80;7.80;;;13.80;1.00;;;;;;5034610;28;20407;-76
2021/09/20 05:25:54;;;;;;;12.03;8.20;;;13.80;1.00;;;;;;5036028;28;20477;-80
2021/09/20 05:28:30;;;;;;;13.90;7.60;;;13.80;1.00;;;;;;5036084;28;20164;-75
2021/09/20 05:30:56;;;;;;;12.93;8.00;;;13.80;1.00;;;;;;5020910;28;20415;-75
2021/09/20 05:33:33;;;;;;;14.87;8.10;;;13.80;1.00;;;;;;5029909;28;20397;-75
2021/09/20 05:36:03;;;;;;;9.73;7.43;;;13.80;1.00;;;;;;5015955;28;20537;-75
2021/09/20 05:38:30;;;;;;;11.10;7.60;;;13.80;1.00;;;;;;5020142;28;20459;-75
2021/09/20 05:40:56;;;;;;;11.43;7.77;;;13.80;1.00;;;;;;5033967;28;20719;-75
2021/09/20 05:43:21;;;;;;;10.50;7.70;;;13.80;1.00;;;;;;5033793;28;20407;-76
2021/09/20 05:45:47;;;;;;;12.90;6.67;;;13.80;1.00;;;;;;5025830;28;20299;-75
2021/09/20 05:48:15;;;;;;;13.00;6.57;;;13.70;1.00;;;;;;5034784;28;20157;-75
2021/09/20 05:50:42;;;;;;;10.53;7.00;;;13.70;1.00;;;;;;5034269;28;20176;-77
2021/09/20 05:53:08;;;;;;;12.70;8.10;;;13.70;1.00;;;;;;5028266;28;20417;-76
2021/09/20 05:55:36;;;;;;;10.90;7.20;;;13.80;1.00;;;;;;5025057;28;20446;-76
2021/09/20 05:58:06;;;;;;;15.13;9.00;;;13.80;1.00;;;;;;5028822;28;20425;-76
2021/09/20 06:00:35;;;;;;;15.93;7.80;;;13.80;1.00;;;;;;5024121;28;21012;-76
2021/09/20 06:03:01;;;;;;;9.90;6.97;;;13.90;1.00;;;;;;5027610;28;20394;-78
2021/09/20 06:05:28;;;;;;;12.70;7.67;;;13.90;1.00;;;;;;5030972;28;21879;-77
2021/09/20 06:08:07;;;;;;;9.67;6.83;;;14.00;1.00;;;;;;5034692;28;20403;-76
2021/09/20 06:10:34;;;;;;;15.63;9.70;;;14.00;1.00;;;;;;5031877;28;20475;-76
2021/09/20 06:13:00;;;;;;;9.10;6.80;;;14.10;1.00;;;;;;5034437;28;20386;-76
2021/09/20 06:15:26;;;;;;;12.97;7.17;;;14.10;1.00;;;;;;5034593;28;20738;-76
2021/09/20 06:18:01;;;;;;;11.30;7.20;;;14.10;1.00;;;;;;5034773;28;20508;-76
2021/09/20 06:20:31;;;;;;;13.13;7.30;;;14.20;1.00;;;;;;5034947;28;20654;-76
2021/09/20 06:22:57;;;;;;;14.30;7.10;;;14.20;1.00;;;;;;5034981;28;20370;-76
2021/09/20 06:25:25;;;;;;;11.27;7.20;;;14.20;1.00;;;;;;5033064;28;20420;-76
2021/09/20 06:27:51;;;;;;;10.70;7.43;;;14.30;1.00;;;;;;5021055;28;20415;-75
2021/09/20 06:30:24;;;;;;;11.13;7.47;;;14.30;1.00;;;;;;5034394;28;20742;-76
2021/09/20 06:32:54;;;;;;;9.63;6.80;;;14.30;1.00;;;;;;5034418;28;20487;-75
2021/09/20 06:35:24;;;;;;;10.80;6.60;;;14.50;1.00;;;;;;5034384;28;20826;-75
2021/09/20 06:37:50;;;;;;;21.53;7.97;;;14.50;1.00;;;;;;5018693;28;20456;-76
2021/09/20 06:40:24;;;;;;;11.03;7.70;;;14.60;1.00;;;;;;5014774;28;20463;-76
2021/09/20 06:43:41;;;;;;;9.27;6.80;;;14.70;1.00;;;;;;5014034;28;20149;-75
2021/09/20 06:46:07;;;;;;;16.70;7.90;;;14.80;1.00;;;;;;5014767;28;20393;-76
2021/09/20 06:49:12;;;;;;;16.03;7.90;;;14.90;1.00;;;;;;5034298;28;20408;-75
2021/09/20 06:52:05;;;;;;;10.33;7.47;;;14.90;1.00;;;;;;5034203;28;20639;-76
2021/09/20 06:54:36;;;;;;;13.90;8.03;;;15.00;1.00;;;;;;5034184;28;20374;-76
2021/09/20 06:57:02;;;;;;;16.10;9.10;;;15.00;1.00;;;;;;5033932;28;21000;-76
2021/09/20 06:59:27;;;;;;;11.73;7.87;;;15.00;1.00;;;;;;5034619;28;20482;-76
2021/09/20 07:02:00;;;;;;;16.17;7.67;;;15.10;1.00;;;;;;5026452;28;20268;-76
2021/09/20 07:04:42;;;;;;;12.70;8.23;;;15.30;1.00;;;;;;5031298;28;20183;-76
2021/09/20 07:07:08;;;;;;;13.53;9.00;;;15.30;1.00;;;;;;5017609;28;20420;-76
2021/09/20 07:09:33;;;;;;;10.90;7.67;;;15.20;1.00;;;;;;5014215;28;20430;-76
2021/09/20 07:11:59;;;;;;;10.43;7.50;;;15.40;1.00;;;;;;5033762;28;20191;-76
2021/09/20 07:14:25;;;;;;;17.80;7.70;;;15.40;1.00;;;;;;5023022;28;20189;-76
2021/09/20 07:16:50;;;;;;;14.83;7.60;;;15.50;1.00;;;;;;5026004;28;20208;-76
2021/09/20 07:19:16;;;;;;;11.13;7.43;;;15.50;1.00;;;;;;5032918;28;20190;-76
2021/09/20 07:21:43;;;;;;;11.27;7.23;;;15.50;1.00;;;;;;5030906;28;20183;-76
2021/09/20 07:24:47;;;;;;;10.60;7.27;;;15.50;1.00;;;;;;5033535;28;20860;-76
2021/09/20 07:27:13;;;;;;;18.07;8.40;;;15.60;1.00;;;;;;5033822;28;20374;-76
2021/09/20 07:29:39;;;;;;;12.77;7.77;;;15.70;1.00;;;;;;5034317;28;20400;-76
2021/09/20 07:32:06;;;;;;;19.20;8.77;;;15.60;1.00;;;;;;5033606;28;20173;-76
2021/09/20 07:34:36;;;;;;;18.20;8.10;;;15.70;1.00;;;;;;5033802;28;20538;-76
2021/09/20 07:37:06;;;;;;;19.33;8.40;;;15.80;1.00;;;;;;5033608;28;20447;-76
2021/09/20 07:39:33;;;;;;;13.43;8.10;;;15.90;1.00;;;;;;5014190;28;20422;-76
2021/09/20 07:42:01;;;;;;;14.33;7.93;;;16.00;1.00;;;;;;5029978;28;20410;-76
2021/09/20 07:44:26;;;;;;;13.60;7.73;;;16.10;1.00;;;;;;5014910;28;20394;-76
2021/09/20 07:47:06;;;;;;;13.90;7.87;;;16.20;1.00;;;;;;5013980;28;20747;-76
2021/09/20 07:49:32;;;;;;;12.93;7.43;;;16.20;1.00;;;;;;5014265;28;20207;-76
2021/09/20 07:52:12;;;;;;;11.20;7.97;;;16.20;1.00;;;;;;5014691;28;20837;-76
2021/09/20 07:54:54;;;;;;;13.30;8.63;;;16.20;1.00;;;;;;5037272;28;20708;-76
2021/09/20 07:58:05;;;;;;;11.20;7.70;;;16.30;1.00;;;;;;5025496;28;21001;-76
2021/09/20 08:01:00;;;;;;;12.60;8.17;;;16.40;1.00;;;;;;5018009;28;20488;-76
2021/09/20 08:03:26;;;;;;;17.20;8.43;;;16.60;1.00;;;;;;5028184;28;20405;-76
2021/09/20 08:06:18;;;;;;;12.60;8.27;;;16.50;1.00;;;;;;5032152;28;20468;-76
2021/09/20 08:08:44;;;;;;;13.80;8.63;;;16.70;1.00;;;;;;5036723;28;20416;-76
2021/09/20 08:11:18;;;;;;;10.30;7.60;;;16.70;1.00;;;;;;5035334;28;20427;-77
2021/09/20 08:14:12;;;;;;;20.10;8.53;;;17.00;1.00;;;;;;5037636;28;20855;-76
2021/09/20 08:16:38;;;;;;;12.63;7.80;;;17.00;1.00;;;;;;5036405;28;20434;-76
2021/09/20 08:19:06;;;;;;;9.50;7.90;;;17.20;1.00;;;;;;5037141;28;20479;-77
2021/09/20 08:21:42;;;;;;;15.80;8.57;;;17.30;1.00;;;;;;5037205;28;20457;-76
2021/09/20 08:24:08;;;;;;;12.00;7.97;;;17.20;1.00;;;;;;5037409;28;20447;-76
2021/09/20 08:26:54;;;;;;;10.40;7.07;;;17.40;1.00;;;;;;5037074;28;20401;-76
2021/09/20 08:29:19;;;;;;;10.40;8.00;;;17.40;1.00;;;;;;5036174;28;20180;-76
2021/09/20 08:31:54;;;;;;;13.47;8.80;;;17.40;1.00;;;;;;5020940;28;20426;-78
2021/09/20 08:34:59;;;;;;;12.20;8.47;;;17.50;1.00;;;;;;5033712;28;20244;-77
2021/09/20 08:40:55;;;;;;;10.97;7.63;;;;;;;;;;5034983;28;20423;-77
2021/09/20 08:43:48;;;;;;;11.93;7.87;;;17.70;1.00;;;;;;5036760;28;20398;-76
2021/09/20 08:46:18;;;;;;;14.57;7.70;;;17.80;1.00;;;;;;5036753;28;20412;-76
2021/09/20 08:48:46;;;;;;;11.50;8.03;;;17.70;1.00;;;;;;5017617;28;20414;-76
2021/09/20 08:51:15;;;;;;;10.60;7.10;;;17.80;1.00;;;;;;5016870;28;20390;-76
2021/09/20 08:53:43;;;;;;;9.93;7.67;;;17.80;1.00;;;;;;5023476;28;20493;-76
2021/09/20 08:56:12;;;;;;;10.93;8.43;;;17.70;1.00;;;;;;5020716;28;20425;-76
2021/09/20 08:58:42;;;;;;;12.90;7.27;;;17.90;1.00;;;;;;5024552;28;20948;-76
2021/09/20 09:01:08;;;;;;;9.57;7.40;;;17.90;1.00;;;;;;5034469;28;20500;-76
2021/09/20 09:03:34;;;;;;;14.60;8.77;;;18.00;1.00;;;;;;5027317;28;20521;-77
2021/09/20 09:06:00;;;;;;;10.47;7.93;;;18.00;1.00;;;;;;5033192;28;20248;-77
2021/09/20 09:09:00;;;;;;;10.07;7.60;;;18.10;1.00;;;;;;5035504;28;20168;-76
2021/09/20 09:11:27;;;;;;;9.20;7.00;;;18.10;1.00;;;;;;5036441;28;20460;-76
2021/09/20 09:14:00;;;;;;;11.30;7.97;;;18.20;1.00;;;;;;5036362;28;20404;-76
2021/09/20 09:16:30;;;;;;;12.33;8.53;;;18.40;1.00;;;;;;5036022;28;20484;-76
2021/09/20 09:19:47;;;;;;;11.63;7.87;;;18.40;1.00;;;;;;5036196;28;20399;-77
2021/09/20 09:22:49;;;;;;;13.30;7.63;;;18.60;1.00;;;;;;5036114;28;20806;-76
2021/09/20 09:25:25;;;;;;;8.23;6.83;;;18.70;1.00;;;;;;5026884;28;20413;-76
2021/09/20 09:27:54;;;;;;;15.53;8.60;;;18.80;1.00;;;;;;5027618;28;20421;-77
2021/09/20 09:30:55;;;;;;;11.93;7.77;;;18.80;1.00;;;;;;5035329;28;20786;-76
2021/09/20 09:33:35;;;;;;;10.40;8.10;;;18.90;1.00;;;;;;5024955;28;20772;-76
2021/09/20 09:36:18;;;;;;;12.80;8.40;;;19.00;1.00;;;;;;5034205;28;20434;-76
2021/09/20 09:39:02;;;;;;;16.73;8.20;;;18.80;1.00;;;;;;5031058;28;20457;-76
2021/09/20 09:41:48;;;;;;;15.83;9.63;;;18.70;1.00;;;;;;5033275;28;20426;-76
2021/09/20 09:44:24;;;;;;;13.10;7.50;;;18.70;1.00;;;;;;5033428;28;20471;-76
2021/09/20 09:47:30;;;;;;;11.50;7.63;;;18.90;1.00;;;;;;5032308;28;20889;-76
2021/09/20 09:50:18;;;;;;;11.40;7.50;;;18.90;1.00;;;;;;5034037;28;20486;-77
2021/09/20 09:53:22;;;;;;;13.77;7.97;;;19.00;1.00;;;;;;5035520;28;20426;-75
2021/09/20 09:55:48;;;;;;;10.17;7.00;;;18.90;1.00;;;;;;5035107;28;20478;-75
2021/09/20 09:58:27;;;;;;;23.43;7.90;;;19.00;1.00;;;;;;5020822;28;20454;-75
2021/09/20 10:01:21;;;;;;;10.33;7.77;;;18.90;1.00;;;;;;5025143;28;20917;-75
2021/09/20 10:07:34;;;;;;;12.43;7.93;;;19.40;1.00;;;;;;5028470;28;20408;-75
2021/09/20 10:10:12;;;;;;;10.07;7.20;;;19.40;1.00;;;;;;5032516;28;20402;-75
2021/09/20 10:16:01;;;;;;;16.00;7.10;;;19.70;1.00;;;;;;5044046;28;20518;-79
2021/09/20 10:21:50;;;;;;;11.03;7.30;;;19.80;1.00;;;;;;5014900;28;20378;-76
2021/09/20 10:24:18;;;;;;;13.27;6.93;;;19.90;1.00;;;;;;5015299;28;20421;-75
2021/09/20 10:40:12;;;;;;;7.27;5.03;;;20.00;1.00;;;;;;5014262;28;20916;-76
2021/09/20 10:43:02;;;;;;;10.13;7.00;;;20.00;1.00;;;;;;5025922;28;20419;-79
2021/09/20 10:49:18;;;;;;;6.97;5.60;;;19.60;1.00;;;;;;5032427;28;20965;-75
2021/09/20 10:55:10;;;;;;;7.90;5.00;;;19.90;1.00;;;;;;5025326;28;20417;-75
2021/09/20 10:58:19;;;;;;;5.90;5.30;;;20.10;1.00;;;;;;5033897;28;20874;-76
2021/09/20 11:01:15;;;;;;;7.27;5.33;;;20.20;1.00;;;;;;5029091;28;20462;-76
2021/09/20 11:03:45;;;;;;;5.40;4.70;;;20.50;1.00;;;;;;5014671;28;20472;-77
2021/09/20 11:06:33;;;;;;;6.37;5.03;;;20.50;1.00;;;;;;5023915;28;20447;-76
2021/09/20 11:08:58;;;;;;;8.30;4.43;;;20.60;1.00;;;;;;5014170;28;20531;-76
2021/09/20 11:11:44;;;;;;;8.00;5.53;;;20.60;1.00;;;;;;5018887;28;20521;-76
2021/09/20 11:14:11;;;;;;;5.87;4.87;;;20.70;1.00;;;;;;5033944;28;20326;-76
2021/09/20 11:16:58;;;;;;;10.83;5.70;;;21.00;1.00;;;;;;5026634;28;20534;-75
2021/09/20 11:19:33;;;;;;;9.43;5.67;;;20.80;1.00;;;;;;5033355;28;20432;-75
2021/09/20 11:22:15;;;;;;;7.30;5.80;;;21.00;1.00;;;;;;5032559;28;20996;-77
2021/09/20 11:25:03;;;;;;;12.27;6.50;;;21.10;1.00;;;;;;5029349;28;20924;-76
2021/09/20 11:27:39;;;;;;;9.33;5.93;;;20.80;1.00;;;;;;5033177;28;20401;-76
2021/09/20 11:30:05;;;;;;;5.70;4.80;;;20.80;1.00;;;;;;5033825;28;20432;-76
2021/09/20 11:32:32;;;;;;;8.80;6.30;;;20.90;1.00;;;;;;5034059;28;20397;-76
2021/09/20 11:35:08;;;;;;;8.57;6.17;;;21.20;1.00;;;;;;5030506;28;20415;-76
2021/09/20 11:37:35;;;;;;;10.50;6.13;;;21.30;1.00;;;;;;5015116;28;20972;-76
2021/09/20 11:40:06;;;;;;;7.80;5.87;;;21.30;1.00;;;;;;5026984;28;20441;-76
2021/09/20 11:42:36;;;;;;;14.00;7.20;;;21.50;1.00;;;;;;5023101;28;20750;-76
2021/09/20 11:45:07;;;;;;;10.20;6.70;;;21.60;1.00;;;;;;5031234;28;21414;-76
2021/09/20 11:47:38;;;;;;;7.70;5.50;;;21.60;1.00;;;;;;5032374;28;20449;-76
2021/09/20 11:50:42;;;;;;;7.40;5.27;;;21.60;1.00;;;;;;5033433;28;20468;-76
2021/09/20 11:53:36;;;;;;;7.40;6.47;;;21.10;1.00;;;;;;5047145;28;20919;-76
2021/09/20 11:56:15;;;;;;;6.00;5.23;;;21.10;1.00;;;;;;5048343;28;20444;-76
2021/09/20 11:58:51;;;;;;;6.97;5.80;;;20.90;1.00;;;;;;5041425;28;20494;-77
2021/09/20 12:01:21;;;;;;;7.77;5.60;;;20.80;1.00;;;;;;5049908;28;20422;-76
2021/09/20 12:03:57;;;;;;;10.73;5.67;;;20.80;1.00;;;;;;5034312;28;20434;-76
2021/09/20 12:06:31;;;;;;;6.67;5.60;;;20.80;1.00;;;;;;5051129;28;20395;-75
2021/09/20 12:09:42;;;;;;;7.00;5.37;;;20.90;1.00;;;;;;5047799;28;20457;-81
2021/09/20 12:12:09;;;;;;;14.87;5.70;;;21.00;1.00;;;;;;5049422;28;20420;-76
2021/09/20 12:14:36;;;;;;;6.40;5.40;;;21.00;1.00;;;;;;5050084;28;20434;-76
2021/09/20 12:17:12;;;;;;;9.03;5.60;;;21.00;1.00;;;;;;5051364;28;20949;-77
2021/09/20 12:20:00;;;;;;;9.73;6.20;;;20.90;1.00;;;;;;5051138;28;20427;-77
2021/09/20 12:22:54;;;;;;;7.53;5.90;;;21.00;1.00;;;;;;5050534;28;20918;-77
2021/09/20 12:25:39;;;;;;;11.53;6.20;;;21.00;1.00;;;;;;5050890;28;20849;-77
2021/09/20 12:28:07;;;;;;;7.30;6.40;;;21.00;1.00;;;;;;5046269;28;20422;-77
2021/09/20 12:31:20;;;;;;;10.43;5.17;;;21.10;1.00;;;;;;5033182;28;20397;-78
2021/09/20 12:33:59;;;;;;;7.50;5.87;;;21.20;1.00;;;;;;5032603;28;20428;-75
2021/09/20 12:36:29;;;;;;;10.30;5.70;;;21.60;1.00;;;;;;5033143;28;20442;-75
2021/09/20 12:39:22;;;;;;;8.07;4.90;;;21.50;1.00;;;;;;5033727;28;20413;-76
2021/09/20 12:42:04;;;;;;;9.73;5.13;;;21.20;1.00;;;;;;5021089;28;20432;-76
2021/09/20 12:44:37;;;;;;;6.20;5.23;;;21.40;1.00;;;;;;5025899;28;20495;-76
2021/09/20 12:47:12;;;;;;;9.57;5.27;;;21.50;1.00;;;;;;5036195;28;20468;-76
2021/09/20 12:49:40;;;;;;;11.03;5.07;;;21.50;1.00;;;;;;5036401;28;20759;-76
2021/09/20 12:52:28;;;;;;;5.90;5.30;;;21.60;1.00;;;;;;5035001;28;20461;-75
2021/09/20 12:54:54;;;;;;;6.53;5.87;;;21.70;1.00;;;;;;5030393;28;20427;-75
2021/09/20 12:57:24;;;;;;;6.20;5.23;;;22.10;1.00;;;;;;5036364;28;20450;-75
2021/09/20 13:00:11;;;;;;;7.20;5.60;;;22.10;1.00;;;;;;5036073;28;20429;-76
2021/09/20 13:02:42;;;;;;;6.73;5.37;;;22.10;1.00;;;;;;5028495;28;20533;-76
2021/09/20 13:05:14;;;;;;;10.73;5.37;;;22.20;1.00;;;;;;5016403;28;20402;-76
2021/09/20 13:07:40;;;;;;;7.00;5.27;;;21.80;1.00;;;;;;5018617;28;20395;-76
2021/09/20 13:10:15;;;;;;;7.50;4.93;;;21.70;1.00;;;;;;5036219;28;20400;-76
2021/09/20 13:12:56;;;;;;;7.57;5.33;;;21.70;1.00;;;;;;5019169;28;20468;-76
2021/09/20 13:15:25;;;;;;;6.57;5.30;;;21.80;1.00;;;;;;5020815;28;20429;-77
2021/09/20 13:17:54;;;;;;;5.17;4.67;;;21.90;1.00;;;;;;5027842;28;20458;-76
2021/09/20 13:20:30;;;;;;;6.53;5.40;;;22.00;1.00;;;;;;5035897;28;20405;-76
2021/09/20 13:23:05;;;;;;;5.73;5.20;;;22.20;1.00;;;;;;5035882;28;20422;-76
2021/09/20 13:25:48;;;;;;;12.43;5.70;;;22.30;1.00;;;;;;5036081;28;20398;-77
2021/09/20 13:28:19;;;;;;;6.50;5.53;;;22.50;1.00;;;;;;5035540;28;20414;-76
2021/09/20 13:30:51;;;;;;;6.03;5.10;;;22.60;1.00;;;;;;5021874;28;20462;-76
2021/09/20 13:33:20;;;;;;;7.97;5.20;;;22.70;1.00;;;;;;5016072;28;20400;-77
2021/09/20 13:35:49;;;;;;;5.47;4.83;;;22.40;1.00;;;;;;5017819;28;20425;-76
2021/09/20 13:38:21;;;;;;;6.17;4.83;;;22.40;1.00;;;;;;5035246;28;20456;-76
2021/09/20 13:40:58;;;;;;;5.60;4.90;;;22.30;1.00;;;;;;5019527;28;21119;-82
2021/09/20 13:43:26;;;;;;;8.43;5.00;;;22.20;1.00;;;;;;5029251;28;20410;-76
2021/09/20 13:45:54;;;;;;;6.63;4.80;;;22.10;1.00;;;;;;5033706;28;20434;-77
2021/09/20 13:48:20;;;;;;;6.07;5.17;;;22.10;1.00;;;;;;5028438;28;20469;-76
2021/09/20 13:50:46;;;;;;;6.53;5.67;;;22.00;1.00;;;;;;5019355;28;20473;-76
2021/09/20 13:53:20;;;;;;;5.87;4.70;;;21.90;1.00;;;;;;5025704;28;20456;-76
2021/09/20 13:56:06;;;;;;;5.87;4.90;;;21.80;1.00;;;;;;5035153;28;20451;-76
2021/09/20 13:58:32;;;;;;;7.70;5.63;;;21.80;1.00;;;;;;5027092;28;21075;-76
2021/09/20 14:01:07;;;;;;;5.20;4.70;;;21.70;1.00;;;;;;5015705;28;20489;-76
2021/09/20 14:03:42;;;;;;;6.47;5.30;;;21.60;1.00;;;;;;5022547;28;20247;-76
2021/09/20 14:06:24;;;;;;;5.30;4.80;;;21.30;1.00;;;;;;5035329;28;20393;-76